KSPS/SPS METAR and TAF weather

Enter ICAO airport designator
Station Type Date Time Source
KSPS METAR 2020/01/17 21:52 UTC NOAA

KSPS 172152Z 20008KT 7SM BKN006 OVC011 04/04 A3004 RMK AO2 RAE45 SLP175 P0009 T00440044


Station Type Date Time Source
KSPS Decoded METAR 2020/01/17 21:52 UTC NOAA

WICHITA FALLS SHEPPARD AFB, TX, United States (KSPS) 33-59N 98-30W 308M
Jan 17, 2020 - 04:52 PM EST / 2020.01.17 2152 UTC
Wind: from the SSW (200 degrees) at 9 MPH (8 KT):0
Visibility: 7 mile(s):0
Sky conditions: overcast
Precipitation last hour: 0.09 inches
Temperature: 39.9 F (4.4 C)
Dew Point: 39.9 F (4.4 C)
Relative Humidity: 100%
Pressure (altimeter): 30.04 in. Hg (1017 hPa)
ob: KSPS 172152Z 20008KT 7SM BKN006 OVC011 04/04 A3004 RMK AO2 RAE45 SLP175 P0009 T00440044
cycle: 22

Station Type Date Time Source
KSPS TAF 2020/01/17 18:48 UTC NOAA

TAF KSPS 171746Z 1718/1818 23011KT 5SM -RADZ BR OVC006
FM172000 23013KT P6SM SCT007 OVC025
TEMPO 1720/1722 6SM -DZ OVC007
FM172300 19012KT P6SM OVC025
FM180800 33013KT P6SM SKC
FM181400 01016G25KT P6SM SKC

Example: see airport list